Station: Snowtown  

  Atmospheric Gas Attenuation - ITU Rec 676-11   ----------------- dB/100km -----------------
Date Time Temp RH % AH g/m3 Dew Point Wind Direction Speed kph Gust kph Barometer mB Rainfall Since 9am 24GHz 47GHz 76GHz 122GHz 134GHz 241GHz
31/08 17:20 17.4 70 10.37 11.9 9 11 1025.3 0.2 23.2 28.2 45.6 119.8 118.1 407.6
31/08 17:10 18 68 10.44 12 11 13 1025.3 0.2 23.3 28.1 45.5 119.7 118.1 407.8
31/08 17:00 18.7 67 10.73 12.5 11 13 1025.3 0.2 23.8 28.3 46.3 121.7 120.9 417.7
31/08 16:50 19.1 64 10.49 12.1 11 13 1025.2 0.2 23.3 27.8 45.1 118.5 117.1 404.4
31/08 16:40 19.5 60 10.07 11.5 9 13 1025.2 0.2 22.4 27.0 43.2 113.5 111.0 383.2
31/08 16:30 19.8 59 10.08 11.6 11 15 1025.3 0.2 22.4 26.9 43.1 113.2 110.7 382.2
31/08 16:20 19.9 58 9.96 11.4 13 17 1025.3 0.2 22.1 26.7 42.6 111.8 109.0 376.3
31/08 16:10 20.1 58 10.08 11.6 13 20 1025.4 0.2 22.4 26.9 42.9 112.8 110.3 380.8
31/08 16:00 20.1 57 9.91 11.3 13 19 1025.5 0.2 22.0 26.6 42.3 111.0 108.1 373.2
31/08 15:50 20.2 52 9.09 10 15 19 1025.6 0.2 20.3 25.3 39.1 102.5 97.7 336.6
31/08 15:40 20.5 57 10.14 11.7 13 19 1025.6 0.2 22.5 26.8 43.0 112.8 110.5 381.6
31/08 15:30 20.4 53 9.38 10.5 15 20 1025.8 0.2 20.9 25.7 40.1 105.2 101.0 348.5
31/08 15:20 20.8 60 10.86 12.8 11 15 1025.9 0.2 24.0 27.9 45.7 120.0 119.4 412.8
31/08 15:10 20.7 56 10.08 11.6 13 20 1025.9 0.2 22.4 26.7 42.6 112.0 109.5 378.1
31/08 15:00 20.6 56 10.02 11.5 15 20 1026.1 0.2 22.2 26.6 42.5 111.5 108.9 375.9
31/08 14:50 20.6 56 10.02 11.5 17 24 1026.1 0.2 22.2 26.6 42.5 111.5 108.9 375.9
31/08 14:40 20.5 54 9.61 10.9 17 26 1026.2 0.2 21.4 26.0 40.9 107.4 103.8 358.2
31/08 14:30 20.5 55 9.79 11.2 17 28 1026.3 0.2 21.8 26.3 41.6 109.3 106.1 366.2
31/08 14:20 20.4 54 9.55 10.8 17 22 1026.4 0.2 21.3 26.0 40.8 107.0 103.2 356.1
31/08 14:10 20.5 56 9.96 11.4 17 24 1026.6 0.2 22.1 26.6 42.3 111.1 108.3 373.9
31/08 14:00 20.4 55 9.73 11.1 17 22 1026.8 0.2 21.6 26.3 41.5 108.9 105.5 364.2
31/08 13:50 20.5 57 10.14 11.7 17 22 1027.1 0.2 22.5 26.9 43.0 113.0 110.6 382.1
31/08 13:40 20.7 62 11.16 13.2 15 20 1027.3 0.2 24.6 28.5 47.0 123.5 123.7 427.6
31/08 13:30 20.4 55 9.73 11.1 13 19 1027.5 0.2 21.6 26.3 41.5 108.9 105.6 364.4
31/08 13:20 20.2 58 10.14 11.7 15 20 1027.7 0.2 22.5 27.0 43.2 113.5 111.1 383.7
31/08 13:10 20.1 60 10.43 12.1 13 20 1027.9 0.2 23.1 27.5 44.4 116.7 115.0 397.4
31/08 13:00 20 64 11.06 13 13 20 1028.1 0.2 24.5 28.6 47.0 123.6 123.5 427.0
31/08 12:50 19.8 63 10.76 12.6 15 20 1028.3 0.2 23.8 28.1 45.9 120.7 119.9 414.2
31/08 12:40 19.6 61 10.3 11.9 13 19 1028.7 0.2 22.9 27.5 44.2 116.1 114.2 394.2
31/08 12:30 19.5 68 11.41 13.4 15 19 1028.9 0.2 25.2 29.3 48.8 128.3 129.1 446.5
31/08 12:20 19.1 64 10.49 12.1 13 19 1029 0.2 23.3 28.0 45.3 119.0 117.4 405.6
31/08 12:10 19 65 10.59 12.3 15 19 1029.2 0.2 23.5 28.2 45.8 120.2 118.9 410.8
31/08 12:00 18.9 67 10.85 12.6 15 17 1029.5 0.2 24.1 28.6 46.9 123.2 122.6 423.6
31/08 11:50 19 70 11.41 13.4 13 19 1029.5 0.2 25.3 29.5 49.1 129.2 130.0 449.6
31/08 11:40 18.4 63 9.91 11.2 13 19 1029.7 0.2 22.1 27.3 43.4 113.8 110.9 382.6
31/08 11:30 17.9 65 9.92 11.2 13 17 1030 0 22.2 27.4 43.7 114.7 111.7 385.5
31/08 11:20 18.1 70 10.81 12.5 15 20 1029.9 0 24.0 28.8 47.2 124.1 123.4 426.2
31/08 11:10 17.6 66 9.9 11.2 15 20 1030.1 0 22.1 27.5 43.8 114.9 111.9 386.1
31/08 11:00 17.3 65 9.58 10.7 17 20 1030.3 0 21.5 27.1 42.7 112.0 108.1 372.8
31/08 10:40 16.7 66 9.38 10.3 17 20 1030.4 0 21.1 26.9 42.2 110.7 106.3 366.4
31/08 10:30 16.4 72 10.05 11.3 15 20 1030.5 0 22.5 28.1 45.1 118.4 115.7 399.3
31/08 10:20 16.1 75 10.28 11.7 15 19 1030.5 0 23.0 28.6 46.2 121.4 119.3 411.8
31/08 10:10 15.5 77 10.18 11.5 15 20 1030.5 0 22.8 28.6 46.2 121.2 118.9 410.2
31/08 10:00 14.9 75 9.56 10.5 15 19 1030.7 0 21.6 27.8 43.9 115.2 111.3 383.5
31/08 09:50 14.7 78 9.82 10.9 13 17 1030.7 0 22.1 28.3 45.1 118.4 115.1 397.0
31/08 09:40 14.2 79 9.65 10.6 11 15 1030.7 0 21.8 28.2 44.7 117.3 113.5 391.3
31/08 09:30 13.5 81 9.47 10.3 13 15 1030.9 0 21.4 28.1 44.3 116.3 112.1 386.2
31/08 09:20 13 83 9.41 10.2 13 17 1030.8 0 21.3 28.2 44.4 116.4 112.0 385.7
31/08 09:10 12.5 82 9.02 9.5 15 19 1030.8 0 20.5 27.7 43.0 112.7 107.3 369.2
31/08 09:00 12.2 83 8.96 9.4 15 20 1031 0 20.4 27.7 42.9 112.5 106.9 367.8
31/08 08:50 11.9 86 9.11 9.6 15 19 1031 0 20.8 28.0 43.7 114.6 109.4 376.5
31/08 08:40 11.5 89 9.19 9.8 13 17 1031 0 20.9 28.3 44.3 116.2 111.1 382.4
31/08 08:30 10.7 95 9.33 9.9 9 13 1031.1 0 21.3 28.8 45.4 119.0 114.3 393.4
31/08 08:20 9.7 96 8.85 9.1 6 11 1031 0 20.3 28.3 43.8 114.9 108.9 374.3
31/08 08:10 9.1 98 8.7 8.8 0 0 1031 0 20.0 28.2 43.5 114.1 107.6 369.7
31/08 08:00 8.3 98 8.26 8 0 0 1031.1 0 19.1 27.7 42.1 110.1 102.4 351.5
31/08 07:50 7.4 99 7.88 7.3 0 0 1030.9 0 18.3 27.3 40.9 107.0 98.1 336.5
31/08 07:40 6 98 7.12 5.7 0 0 1030.9 0 16.8 26.4 38.3 100.1 89.1 304.6
31/08 07:30 4.8 98 6.58 4.5 0 0 1030.9 0 15.6 25.8 36.6 95.5 82.9 282.6
31/08 07:20 3.5 98 6.03 3.2 0 0 1030.8 0 14.5 25.3 34.8 90.8 76.5 260.1
31/08 07:10 2.8 97 5.7 2.4 6 6 1030.8 0 13.8 24.9 33.8 87.9 72.6 246.3
31/08 07:00 2.4 97 5.54 2 0 2 1030.8 0 13.5 24.7 33.3 86.6 70.8 239.8
31/08 06:50 2.3 97 5.51 1.9 6 9 1030.7 0 13.4 24.7 33.2 86.3 70.4 238.6
31/08 06:40 1.5 96 5.16 0.9 7 9 1030.8 0 12.7 24.4 32.0 83.3 66.3 224.0
31/08 06:30 1.9 97 5.36 1.5 2 6 1030.9 0 13.1 24.6 32.7 85.1 68.7 232.6
31/08 06:20 1.9 96 5.3 1.3 6 6 1030.9 0 13.0 24.5 32.5 84.4 67.9 229.7
31/08 06:10 2.3 97 5.51 1.9 6 6 1030.8 0 13.4 24.7 33.2 86.3 70.4 238.6
31/08 06:00 1.6 96 5.2 1 6 7 1030.9 0 12.8 24.4 32.2 83.6 66.8 225.7
31/08 05:50 2 97 5.4 1.6 6 6 1030.7 0 13.2 24.6 32.8 85.4 69.2 234.2
31/08 05:40 1.8 97 5.32 1.4 11 11 1030.8 0 13.0 24.5 32.6 84.8 68.3 230.9
31/08 05:30 1.8 96 5.27 1.2 7 11 1030.7 0 12.9 24.5 32.4 84.2 67.6 228.5
31/08 05:20 2.4 96 5.49 1.8 7 7 1030.6 0 13.4 24.7 33.0 86.0 70.1 237.3
31/08 05:10 2.3 96 5.45 1.7 0 0 1030.5 0 13.3 24.6 32.9 85.6 69.6 235.7
31/08 05:00 2.7 96 5.6 2.1 2 6 1030.6 0 13.6 24.8 33.4 86.9 71.3 241.7
31/08 04:50 2.7 95 5.54 2 4 9 1030.6 0 13.5 24.7 33.1 86.2 70.5 238.8
31/08 04:40 3.1 95 5.69 2.4 0 0 1030.6 0 13.8 24.8 33.6 87.4 72.2 244.9
31/08 04:30 4 96 6.11 3.4 4 7 1030.7 0 14.7 25.3 35.0 91.1 77.1 262.4
31/08 04:20 3.7 96 5.99 3.1 6 11 1030.5 0 14.4 25.1 34.6 90.1 75.7 257.5
31/08 04:10 3.5 96 5.91 2.9 7 13 1030.5 0 14.3 25.1 34.3 89.4 74.8 254.2
31/08 04:00 3.8 96 6.03 3.2 9 11 1030.4 0 14.5 25.2 34.7 90.4 76.2 259.1
31/08 03:50 4 96 6.11 3.4 9 11 1030.5 0 14.7 25.2 34.9 91.1 77.1 262.3
31/08 03:40 4 95 6.05 3.3 9 11 1030.4 0 14.5 25.1 34.7 90.4 76.3 259.4
31/08 03:30 4.3 96 6.23 3.7 9 11 1030.6 0 14.9 25.4 35.3 92.1 78.5 267.2
31/08 03:20 4.5 95 6.25 3.8 11 13 1030.5 0 14.9 25.3 35.3 92.1 78.5 267.4
31/08 03:10 4.9 96 6.48 4.3 13 13 1030.6 0 15.4 25.6 36.1 94.2 81.3 277.2
31/08 03:00 4.6 96 6.36 4 13 15 1030.8 0 15.2 25.5 35.7 93.2 80.0 272.5
31/08 02:50 4.5 96 6.32 3.9 13 15 1031 0 15.1 25.5 35.6 92.9 79.6 270.9
31/08 02:40 4.6 97 6.42 4.2 13 15 1031.1 0 15.3 25.6 36.0 93.9 80.8 275.5
31/08 02:30 4.3 97 6.3 3.9 11 15 1031.3 0 15.1 25.5 35.6 93.0 79.5 270.7
31/08 02:20 3.5 97 5.97 3.1 11 13 1031.3 0 14.4 25.2 34.6 90.2 75.7 257.3
31/08 02:10 3.2 97 5.85 2.8 9 11 1031.4 0 14.1 25.1 34.2 89.2 74.3 252.5
31/08 02:00 3 96 5.71 2.4 6 11 1031.5 0 13.8 24.9 33.7 87.9 72.6 246.3
31/08 01:50 3.1 96 5.75 2.5 0 0 1031.5 0 13.9 24.9 33.9 88.2 73.1 248.0
31/08 01:40 3.6 96 5.95 3 0 0 1031.6 0 14.3 25.1 34.5 89.9 75.4 256.1
31/08 01:30 3.4 96 5.87 2.8 4 9 1031.8 0 14.2 25.1 34.3 89.2 74.5 252.9
31/08 01:20 3.8 96 6.03 3.2 7 7 1031.7 0 14.5 25.2 34.7 90.6 76.3 259.3
31/08 01:10 4 96 6.11 3.4 4 6 1031.8 0 14.7 25.3 35.0 91.2 77.2 262.6
31/08 01:00 4 95 6.05 3.3 2 7 1032 0 14.5 25.2 34.8 90.6 76.4 259.7
31/08 00:50 4.6 96 6.36 4 0 0 1031.8 0 15.2 25.6 35.8 93.3 80.1 272.7
31/08 00:40 4.7 95 6.33 4 0 0 1032 0 15.1 25.5 35.6 92.9 79.6 271.0

Last Refresh: 31-Aug-2026 17:30:38

Bureau of Meteorology